Aviation Digital Data Service (ADDS)

Output produced by METARs form (2205 UTC 01 February 2023)
found at http://www.aviationweather.gov/metar/data/
 
KPDK 012153Z 28007KT 10SM OVC025 13/08 A3017 RMK AO2 SLP218 T01330083
KPDK 012135Z 25005KT 10SM BKN025 13/08 A3017 RMK AO2 T01330083
KPDK 011925Z 0119/0218 29007KT P6SM BKN012 
     TEMPO 0120/0122 SCT013 OVC100 
     FM020500 30003KT P6SM -SHRA FEW006 OVC012 
     FM021100 31003KT 5SM SHRA BR OVC006 
     FM021700 VRB03KT 3SM BR OVC003